sensor_id;sensor_type;location;lat;lon;timestamp;P1;durP1;ratioP1;P2;durP2;ratioP2
45867;SDS011;31582;45.490;7.860;2023-02-13T00:00:40;5.87;;;5.57;;
45867;SDS011;31582;45.490;7.860;2023-02-13T00:03:07;5.35;;;5.05;;
45867;SDS011;31582;45.490;7.860;2023-02-13T00:05:34;5.30;;;5.10;;
45867;SDS011;31582;45.490;7.860;2023-02-13T00:08:01;5.28;;;4.97;;
45867;SDS011;31582;45.490;7.860;2023-02-13T00:10:28;5.10;;;4.80;;
45867;SDS011;31582;45.490;7.860;2023-02-13T00:12:55;4.93;;;4.72;;
45867;SDS011;31582;45.490;7.860;2023-02-13T00:15:22;5.20;;;4.93;;
45867;SDS011;31582;45.490;7.860;2023-02-13T00:17:49;4.80;;;4.60;;
45867;SDS011;31582;45.490;7.860;2023-02-13T00:20:16;4.55;;;4.35;;
45867;SDS011;31582;45.490;7.860;2023-02-13T00:22:43;4.55;;;4.35;;
45867;SDS011;31582;45.490;7.860;2023-02-13T00:25:10;4.80;;;4.60;;
45867;SDS011;31582;45.490;7.860;2023-02-13T00:27:38;5.05;;;4.78;;
45867;SDS011;31582;45.490;7.860;2023-02-13T00:30:05;5.20;;;5.00;;
45867;SDS011;31582;45.490;7.860;2023-02-13T00:32:32;4.40;;;4.20;;
45867;SDS011;31582;45.490;7.860;2023-02-13T00:34:59;4.63;;;4.43;;
45867;SDS011;31582;45.490;7.860;2023-02-13T00:37:26;4.65;;;4.35;;
45867;SDS011;31582;45.490;7.860;2023-02-13T00:39:53;5.00;;;4.70;;
45867;SDS011;31582;45.490;7.860;2023-02-13T00:42:21;4.40;;;4.20;;
45867;SDS011;31582;45.490;7.860;2023-02-13T00:44:52;4.67;;;4.47;;
45867;SDS011;31582;45.490;7.860;2023-02-13T00:47:19;4.60;;;4.40;;
45867;SDS011;31582;45.490;7.860;2023-02-13T00:49:46;4.73;;;4.50;;
45867;SDS011;31582;45.490;7.860;2023-02-13T00:52:13;4.78;;;4.57;;
45867;SDS011;31582;45.490;7.860;2023-02-13T00:54:40;4.40;;;4.20;;
45867;SDS011;31582;45.490;7.860;2023-02-13T00:57:07;4.68;;;4.47;;
45867;SDS011;31582;45.490;7.860;2023-02-13T00:59:34;4.35;;;4.15;;
45867;SDS011;31582;45.490;7.860;2023-02-13T01:02:01;4.60;;;4.40;;
45867;SDS011;31582;45.490;7.860;2023-02-13T01:04:28;4.18;;;3.97;;
45867;SDS011;31582;45.490;7.860;2023-02-13T01:06:55;4.03;;;3.83;;
45867;SDS011;31582;45.490;7.860;2023-02-13T01:09:22;4.03;;;3.83;;
45867;SDS011;31582;45.490;7.860;2023-02-13T01:11:49;3.65;;;3.45;;
45867;SDS011;31582;45.490;7.860;2023-02-13T01:14:16;4.00;;;3.80;;
45867;SDS011;31582;45.490;7.860;2023-02-13T01:16:43;3.45;;;3.25;;
45867;SDS011;31582;45.490;7.860;2023-02-13T01:19:10;3.70;;;3.58;;
45867;SDS011;31582;45.490;7.860;2023-02-13T01:21:37;3.47;;;3.28;;
45867;SDS011;31582;45.490;7.860;2023-02-13T01:24:04;3.53;;;3.33;;
45867;SDS011;31582;45.490;7.860;2023-02-13T01:26:31;3.58;;;3.38;;
45867;SDS011;31582;45.490;7.860;2023-02-13T01:28:58;3.63;;;3.42;;
45867;SDS011;31582;45.490;7.860;2023-02-13T01:31:25;3.10;;;2.90;;
45867;SDS011;31582;45.490;7.860;2023-02-13T01:33:54;3.17;;;3.08;;
45867;SDS011;31582;45.490;7.860;2023-02-13T01:36:24;2.92;;;2.83;;
45867;SDS011;31582;45.490;7.860;2023-02-13T01:38:51;3.10;;;2.97;;
45867;SDS011;31582;45.490;7.860;2023-02-13T01:41:20;3.10;;;3.00;;
45867;SDS011;31582;45.490;7.860;2023-02-13T01:46:18;3.67;;;3.47;;
45867;SDS011;31582;45.490;7.860;2023-02-13T01:49:09;3.28;;;3.17;;
45867;SDS011;31582;45.490;7.860;2023-02-13T01:51:46;2.80;;;2.70;;
45867;SDS011;31582;45.490;7.860;2023-02-13T01:54:26;3.15;;;3.03;;
45867;SDS011;31582;45.490;7.860;2023-02-13T01:57:00;2.85;;;2.65;;
45867;SDS011;31582;45.490;7.860;2023-02-13T01:59:43;2.97;;;2.88;;
45867;SDS011;31582;45.490;7.860;2023-02-13T02:57:05;3.97;;;3.78;;
45867;SDS011;31582;45.490;7.860;2023-02-13T02:59:36;3.70;;;3.50;;
45867;SDS011;31582;45.490;7.860;2023-02-13T03:02:24;4.05;;;3.85;;
45867;SDS011;31582;45.490;7.860;2023-02-13T03:05:19;3.85;;;3.65;;
45867;SDS011;31582;45.490;7.860;2023-02-13T03:08:09;3.90;;;3.70;;
45867;SDS011;31582;45.490;7.860;2023-02-13T03:10:36;3.40;;;3.30;;
45867;SDS011;31582;45.490;7.860;2023-02-13T03:13:34;3.90;;;3.70;;
45867;SDS011;31582;45.490;7.860;2023-02-13T03:16:09;3.40;;;3.30;;
45867;SDS011;31582;45.490;7.860;2023-02-13T03:19:00;3.83;;;3.63;;
45867;SDS011;31582;45.490;7.860;2023-02-13T03:21:47;3.67;;;3.55;;
45867;SDS011;31582;45.490;7.860;2023-02-13T03:41:39;3.80;;;3.70;;
45867;SDS011;31582;45.490;7.860;2023-02-13T03:47:01;3.83;;;3.63;;
45867;SDS011;31582;45.490;7.860;2023-02-13T03:49:40;3.53;;;3.42;;
45867;SDS011;31582;45.490;7.860;2023-02-13T03:52:43;3.58;;;3.38;;
45867;SDS011;31582;45.490;7.860;2023-02-13T03:55:20;3.35;;;3.25;;
45867;SDS011;31582;45.490;7.860;2023-02-13T04:01:29;3.60;;;3.40;;
45867;SDS011;31582;45.490;7.860;2023-02-13T04:06:55;3.83;;;3.63;;
45867;SDS011;31582;45.490;7.860;2023-02-13T04:09:27;3.90;;;3.72;;
45867;SDS011;31582;45.490;7.860;2023-02-13T04:17:29;3.60;;;3.50;;
45867;SDS011;31582;45.490;7.860;2023-02-13T04:20:01;3.50;;;3.40;;
45867;SDS011;31582;45.490;7.860;2023-02-13T04:22:28;3.25;;;3.15;;
45867;SDS011;31582;45.490;7.860;2023-02-13T04:24:55;3.42;;;3.33;;
45867;SDS011;31582;45.490;7.860;2023-02-13T04:27:22;3.80;;;3.70;;
45867;SDS011;31582;45.490;7.860;2023-02-13T04:29:52;3.88;;;3.67;;
45867;SDS011;31582;45.490;7.860;2023-02-13T04:32:19;4.03;;;3.83;;
45867;SDS011;31582;45.490;7.860;2023-02-13T04:34:46;3.60;;;3.40;;
45867;SDS011;31582;45.490;7.860;2023-02-13T04:37:13;3.70;;;3.60;;
45867;SDS011;31582;45.490;7.860;2023-02-13T04:39:39;3.45;;;3.35;;
45867;SDS011;31582;45.490;7.860;2023-02-13T04:42:06;3.65;;;3.55;;
45867;SDS011;31582;45.490;7.860;2023-02-13T04:44:33;3.53;;;3.40;;
45867;SDS011;31582;45.490;7.860;2023-02-13T04:47:00;3.40;;;3.30;;
45867;SDS011;31582;45.490;7.860;2023-02-13T04:49:27;4.07;;;3.88;;
45867;SDS011;31582;45.490;7.860;2023-02-13T04:51:54;3.88;;;3.67;;
45867;SDS011;31582;45.490;7.860;2023-02-13T04:54:21;3.78;;;3.60;;
45867;SDS011;31582;45.490;7.860;2023-02-13T04:56:48;3.55;;;3.35;;
45867;SDS011;31582;45.490;7.860;2023-02-13T04:59:15;3.55;;;3.38;;
45867;SDS011;31582;45.490;7.860;2023-02-13T05:01:41;3.90;;;3.70;;
45867;SDS011;31582;45.490;7.860;2023-02-13T05:04:09;3.80;;;3.60;;
45867;SDS011;31582;45.490;7.860;2023-02-13T05:06:36;3.40;;;3.30;;
45867;SDS011;31582;45.490;7.860;2023-02-13T05:09:03;3.38;;;3.28;;
45867;SDS011;31582;45.490;7.860;2023-02-13T05:11:30;3.60;;;3.40;;
45867;SDS011;31582;45.490;7.860;2023-02-13T05:13:57;3.50;;;3.40;;
45867;SDS011;31582;45.490;7.860;2023-02-13T05:16:24;3.67;;;3.47;;
45867;SDS011;31582;45.490;7.860;2023-02-13T05:18:51;3.40;;;3.30;;
45867;SDS011;31582;45.490;7.860;2023-02-13T05:21:20;3.53;;;3.42;;
45867;SDS011;31582;45.490;7.860;2023-02-13T05:24:05;3.72;;;3.58;;
45867;SDS011;31582;45.490;7.860;2023-02-13T05:26:33;3.90;;;3.70;;
45867;SDS011;31582;45.490;7.860;2023-02-13T05:28:59;3.55;;;3.45;;
45867;SDS011;31582;45.490;7.860;2023-02-13T05:31:45;3.53;;;3.42;;
45867;SDS011;31582;45.490;7.860;2023-02-13T05:34:13;3.40;;;3.30;;
45867;SDS011;31582;45.490;7.860;2023-02-13T05:36:40;3.50;;;3.30;;
45867;SDS011;31582;45.490;7.860;2023-02-13T05:39:07;3.88;;;3.67;;
45867;SDS011;31582;45.490;7.860;2023-02-13T05:41:34;3.42;;;3.33;;
45867;SDS011;31582;45.490;7.860;2023-02-13T05:44:01;3.60;;;3.50;;
45867;SDS011;31582;45.490;7.860;2023-02-13T05:46:28;3.70;;;3.60;;
45867;SDS011;31582;45.490;7.860;2023-02-13T05:48:55;3.70;;;3.50;;
45867;SDS011;31582;45.490;7.860;2023-02-13T05:51:23;3.65;;;3.45;;
45867;SDS011;31582;45.490;7.860;2023-02-13T05:53:49;3.90;;;3.70;;
45867;SDS011;31582;45.490;7.860;2023-02-13T05:56:16;3.50;;;3.35;;
45867;SDS011;31582;45.490;7.860;2023-02-13T05:58:43;3.80;;;3.70;;
45867;SDS011;31582;45.490;7.860;2023-02-13T06:01:10;3.70;;;3.50;;
45867;SDS011;31582;45.490;7.860;2023-02-13T06:03:37;3.30;;;3.20;;
45867;SDS011;31582;45.490;7.860;2023-02-13T06:06:05;3.80;;;3.60;;
45867;SDS011;31582;45.490;7.860;2023-02-13T06:08:32;3.60;;;3.50;;
45867;SDS011;31582;45.490;7.860;2023-02-13T06:10:59;3.53;;;3.42;;
45867;SDS011;31582;45.490;7.860;2023-02-13T06:13:27;3.58;;;3.47;;
45867;SDS011;31582;45.490;7.860;2023-02-13T06:15:54;3.38;;;3.28;;
45867;SDS011;31582;45.490;7.860;2023-02-13T06:18:21;3.85;;;3.55;;
45867;SDS011;31582;45.490;7.860;2023-02-13T06:20:48;3.50;;;3.40;;
45867;SDS011;31582;45.490;7.860;2023-02-13T06:23:15;3.47;;;3.38;;
45867;SDS011;31582;45.490;7.860;2023-02-13T06:25:42;3.28;;;3.17;;
45867;SDS011;31582;45.490;7.860;2023-02-13T06:28:09;3.50;;;3.40;;
45867;SDS011;31582;45.490;7.860;2023-02-13T06:30:36;3.43;;;3.33;;
45867;SDS011;31582;45.490;7.860;2023-02-13T06:33:06;3.63;;;3.42;;
45867;SDS011;31582;45.490;7.860;2023-02-13T06:35:32;3.42;;;3.22;;
45867;SDS011;31582;45.490;7.860;2023-02-13T06:37:59;3.10;;;3.00;;
45867;SDS011;31582;45.490;7.860;2023-02-13T06:40:26;3.42;;;3.33;;
45867;SDS011;31582;45.490;7.860;2023-02-13T06:42:53;3.30;;;3.20;;
45867;SDS011;31582;45.490;7.860;2023-02-13T06:45:20;3.55;;;3.35;;
45867;SDS011;31582;45.490;7.860;2023-02-13T06:47:47;3.47;;;3.38;;
45867;SDS011;31582;45.490;7.860;2023-02-13T06:50:15;3.33;;;3.22;;
45867;SDS011;31582;45.490;7.860;2023-02-13T06:52:46;3.10;;;3.00;;
45867;SDS011;31582;45.490;7.860;2023-02-13T06:55:14;3.20;;;3.00;;
45867;SDS011;31582;45.490;7.860;2023-02-13T06:57:42;3.55;;;3.35;;
45867;SDS011;31582;45.490;7.860;2023-02-13T07:00:10;3.65;;;3.38;;
45867;SDS011;31582;45.490;7.860;2023-02-13T07:02:39;3.45;;;3.25;;
45867;SDS011;31582;45.490;7.860;2023-02-13T07:05:07;6.40;;;6.00;;
45867;SDS011;31582;45.490;7.860;2023-02-13T07:07:35;6.07;;;5.68;;
45867;SDS011;31582;45.490;7.860;2023-02-13T07:10:04;6.55;;;6.05;;
45867;SDS011;31582;45.490;7.860;2023-02-13T07:12:33;5.70;;;5.40;;
45867;SDS011;31582;45.490;7.860;2023-02-13T07:15:02;6.22;;;5.82;;
45867;SDS011;31582;45.490;7.860;2023-02-13T07:17:30;6.13;;;5.80;;
45867;SDS011;31582;45.490;7.860;2023-02-13T07:19:57;5.75;;;5.35;;
45867;SDS011;31582;45.490;7.860;2023-02-13T07:22:24;5.43;;;5.13;;
45867;SDS011;31582;45.490;7.860;2023-02-13T07:24:51;5.30;;;5.00;;
45867;SDS011;31582;45.490;7.860;2023-02-13T07:27:18;4.10;;;3.90;;
45867;SDS011;31582;45.490;7.860;2023-02-13T07:29:45;4.20;;;4.00;;
45867;SDS011;31582;45.490;7.860;2023-02-13T07:32:12;4.23;;;4.03;;
45867;SDS011;31582;45.490;7.860;2023-02-13T07:34:39;3.83;;;3.65;;
45867;SDS011;31582;45.490;7.860;2023-02-13T07:37:26;3.72;;;3.53;;
45867;SDS011;31582;45.490;7.860;2023-02-13T07:39:54;4.28;;;4.07;;
45867;SDS011;31582;45.490;7.860;2023-02-13T07:42:21;4.10;;;3.90;;
45867;SDS011;31582;45.490;7.860;2023-02-13T07:44:47;3.80;;;3.60;;
45867;SDS011;31582;45.490;7.860;2023-02-13T07:47:14;3.70;;;3.55;;
45867;SDS011;31582;45.490;7.860;2023-02-13T07:49:45;3.50;;;3.30;;
45867;SDS011;31582;45.490;7.860;2023-02-13T07:52:12;3.53;;;3.37;;
45867;SDS011;31582;45.490;7.860;2023-02-13T07:54:39;3.58;;;3.47;;
45867;SDS011;31582;45.490;7.860;2023-02-13T07:57:13;3.75;;;3.55;;
45867;SDS011;31582;45.490;7.860;2023-02-13T07:59:40;3.40;;;3.20;;
45867;SDS011;31582;45.490;7.860;2023-02-13T08:02:11;3.60;;;3.50;;
45867;SDS011;31582;45.490;7.860;2023-02-13T08:04:39;3.70;;;3.50;;
45867;SDS011;31582;45.490;7.860;2023-02-13T08:07:07;3.28;;;3.17;;
45867;SDS011;31582;45.490;7.860;2023-02-13T08:09:34;3.83;;;3.60;;
45867;SDS011;31582;45.490;7.860;2023-02-13T08:12:19;3.55;;;3.35;;
45867;SDS011;31582;45.490;7.860;2023-02-13T08:14:46;3.63;;;3.33;;
45867;SDS011;31582;45.490;7.860;2023-02-13T08:17:13;3.63;;;3.40;;
45867;SDS011;31582;45.490;7.860;2023-02-13T08:19:40;3.67;;;3.37;;
45867;SDS011;31582;45.490;7.860;2023-02-13T08:22:07;4.10;;;3.42;;
45867;SDS011;31582;45.490;7.860;2023-02-13T08:24:34;3.55;;;3.17;;
45867;SDS011;31582;45.490;7.860;2023-02-13T08:27:01;3.40;;;3.20;;
45867;SDS011;31582;45.490;7.860;2023-02-13T08:29:28;3.72;;;3.53;;
45867;SDS011;31582;45.490;7.860;2023-02-13T08:31:54;3.35;;;3.15;;
45867;SDS011;31582;45.490;7.860;2023-02-13T08:34:21;2.60;;;2.50;;
45867;SDS011;31582;45.490;7.860;2023-02-13T08:36:48;4.80;;;3.08;;
45867;SDS011;31582;45.490;7.860;2023-02-13T08:39:15;3.05;;;2.85;;
45867;SDS011;31582;45.490;7.860;2023-02-13T08:41:42;2.15;;;2.05;;
45867;SDS011;31582;45.490;7.860;2023-02-13T08:44:09;2.60;;;2.50;;
45867;SDS011;31582;45.490;7.860;2023-02-13T08:46:36;2.13;;;2.03;;
45867;SDS011;31582;45.490;7.860;2023-02-13T08:49:03;2.70;;;2.60;;
45867;SDS011;31582;45.490;7.860;2023-02-13T08:51:30;2.30;;;2.20;;
45867;SDS011;31582;45.490;7.860;2023-02-13T08:53:58;2.97;;;2.78;;
45867;SDS011;31582;45.490;7.860;2023-02-13T08:56:25;2.42;;;2.33;;
45867;SDS011;31582;45.490;7.860;2023-02-13T08:58:52;2.30;;;2.20;;
45867;SDS011;31582;45.490;7.860;2023-02-13T09:01:19;2.20;;;2.00;;
45867;SDS011;31582;45.490;7.860;2023-02-13T09:03:46;2.45;;;2.35;;
45867;SDS011;31582;45.490;7.860;2023-02-13T09:06:13;2.17;;;2.08;;
45867;SDS011;31582;45.490;7.860;2023-02-13T09:08:40;2.42;;;2.33;;
45867;SDS011;31582;45.490;7.860;2023-02-13T09:11:08;2.17;;;2.08;;
45867;SDS011;31582;45.490;7.860;2023-02-13T09:13:35;2.00;;;1.90;;
45867;SDS011;31582;45.490;7.860;2023-02-13T09:16:03;2.00;;;1.90;;
45867;SDS011;31582;45.490;7.860;2023-02-13T09:18:31;2.40;;;2.30;;
45867;SDS011;31582;45.490;7.860;2023-02-13T09:20:59;1.92;;;1.83;;
45867;SDS011;31582;45.490;7.860;2023-02-13T09:23:29;2.20;;;2.00;;
45867;SDS011;31582;45.490;7.860;2023-02-13T09:26:00;2.05;;;1.95;;
45867;SDS011;31582;45.490;7.860;2023-02-13T09:28:28;2.08;;;1.98;;
45867;SDS011;31582;45.490;7.860;2023-02-13T09:30:57;2.20;;;2.05;;
45867;SDS011;31582;45.490;7.860;2023-02-13T09:33:24;2.00;;;1.90;;
45867;SDS011;31582;45.490;7.860;2023-02-13T09:35:51;1.70;;;1.63;;
45867;SDS011;31582;45.490;7.860;2023-02-13T09:38:18;3.00;;;2.90;;
45867;SDS011;31582;45.490;7.860;2023-02-13T09:40:52;3.33;;;3.23;;
45867;SDS011;31582;45.490;7.860;2023-02-13T09:46:20;2.80;;;2.70;;
45867;SDS011;31582;45.490;7.860;2023-02-13T09:48:52;2.90;;;2.80;;
45867;SDS011;31582;45.490;7.860;2023-02-13T09:51:21;2.80;;;2.70;;
45867;SDS011;31582;45.490;7.860;2023-02-13T09:53:55;3.22;;;3.03;;
45867;SDS011;31582;45.490;7.860;2023-02-13T09:56:46;3.08;;;2.97;;
45867;SDS011;31582;45.490;7.860;2023-02-13T09:59:39;3.33;;;3.22;;
45867;SDS011;31582;45.490;7.860;2023-02-13T10:05:03;3.73;;;3.53;;
45867;SDS011;31582;45.490;7.860;2023-02-13T10:08:11;3.63;;;3.42;;
45867;SDS011;31582;45.490;7.860;2023-02-13T10:16:18;3.22;;;3.13;;
45867;SDS011;31582;45.490;7.860;2023-02-13T10:21:35;3.78;;;3.58;;
45867;SDS011;31582;45.490;7.860;2023-02-13T10:24:11;4.00;;;3.80;;
45867;SDS011;31582;45.490;7.860;2023-02-13T10:26:44;4.10;;;3.90;;
45867;SDS011;31582;45.490;7.860;2023-02-13T10:32:10;3.95;;;3.75;;
45867;SDS011;31582;45.490;7.860;2023-02-13T10:34:45;4.05;;;3.85;;
45867;SDS011;31582;45.490;7.860;2023-02-13T10:37:17;3.97;;;3.78;;
45867;SDS011;31582;45.490;7.860;2023-02-13T10:39:47;3.95;;;3.75;;
45867;SDS011;31582;45.490;7.860;2023-02-13T10:42:42;3.90;;;3.70;;
45867;SDS011;31582;45.490;7.860;2023-02-13T10:53:18;2.97;;;2.87;;
45867;SDS011;31582;45.490;7.860;2023-02-13T10:55:50;2.70;;;2.60;;
45867;SDS011;31582;45.490;7.860;2023-02-13T11:01:39;2.90;;;2.80;;
45867;SDS011;31582;45.490;7.860;2023-02-13T11:04:16;2.40;;;2.30;;
45867;SDS011;31582;45.490;7.860;2023-02-13T11:06:47;2.53;;;2.42;;
45867;SDS011;31582;45.490;7.860;2023-02-13T11:09:27;2.10;;;2.00;;
45867;SDS011;31582;45.490;7.860;2023-02-13T11:11:56;2.22;;;2.10;;
45867;SDS011;31582;45.490;7.860;2023-02-13T11:14:24;2.35;;;2.25;;
45867;SDS011;31582;45.490;7.860;2023-02-13T11:16:56;2.80;;;2.70;;
45867;SDS011;31582;45.490;7.860;2023-02-13T11:25:03;3.08;;;2.97;;
45867;SDS011;31582;45.490;7.860;2023-02-13T11:27:54;3.03;;;2.83;;
45867;SDS011;31582;45.490;7.860;2023-02-13T11:30:41;2.97;;;2.88;;
45867;SDS011;31582;45.490;7.860;2023-02-13T11:35:50;3.25;;;3.05;;
45867;SDS011;31582;45.490;7.860;2023-02-13T11:38:33;3.20;;;3.10;;
45867;SDS011;31582;45.490;7.860;2023-02-13T11:41:13;3.22;;;3.10;;
45867;SDS011;31582;45.490;7.860;2023-02-13T11:43:52;3.72;;;3.53;;
45867;SDS011;31582;45.490;7.860;2023-02-13T11:47:09;3.08;;;2.97;;
45867;SDS011;31582;45.490;7.860;2023-02-13T11:49:27;3.58;;;3.38;;
45867;SDS011;31582;45.490;7.860;2023-02-13T11:51:58;3.55;;;3.40;;
45867;SDS011;31582;45.490;7.860;2023-02-13T11:54:34;3.80;;;3.60;;
45867;SDS011;31582;45.490;7.860;2023-02-13T11:57:20;3.58;;;3.38;;
45867;SDS011;31582;45.490;7.860;2023-02-13T11:59:49;3.45;;;3.25;;
45867;SDS011;31582;45.490;7.860;2023-02-13T12:02:19;3.42;;;3.33;;
45867;SDS011;31582;45.490;7.860;2023-02-13T12:08:01;3.57;;;3.37;;
45867;SDS011;31582;45.490;7.860;2023-02-13T12:10:31;3.22;;;3.10;;
45867;SDS011;31582;45.490;7.860;2023-02-13T12:15:32;3.28;;;3.10;;
45867;SDS011;31582;45.490;7.860;2023-02-13T12:18:05;3.10;;;2.90;;
45867;SDS011;31582;45.490;7.860;2023-02-13T12:20:39;3.22;;;3.13;;
45867;SDS011;31582;45.490;7.860;2023-02-13T12:23:25;3.47;;;3.28;;
45867;SDS011;31582;45.490;7.860;2023-02-13T12:26:07;3.22;;;3.13;;
45867;SDS011;31582;45.490;7.860;2023-02-13T12:31:44;2.95;;;2.85;;
45867;SDS011;31582;45.490;7.860;2023-02-13T12:39:57;3.10;;;3.00;;
45867;SDS011;31582;45.490;7.860;2023-02-13T12:42:43;3.25;;;3.15;;
45867;SDS011;31582;45.490;7.860;2023-02-13T12:45:37;2.92;;;2.83;;
45867;SDS011;31582;45.490;7.860;2023-02-13T12:50:47;3.15;;;3.00;;
45867;SDS011;31582;45.490;7.860;2023-02-13T12:53:32;3.90;;;3.70;;
45867;SDS011;31582;45.490;7.860;2023-02-13T13:21:08;3.63;;;3.45;;
45867;SDS011;31582;45.490;7.860;2023-02-13T13:29:08;3.65;;;3.45;;
45867;SDS011;31582;45.490;7.860;2023-02-13T13:31:40;3.25;;;3.15;;
45867;SDS011;31582;45.490;7.860;2023-02-13T13:34:12;3.63;;;3.42;;
45867;SDS011;31582;45.490;7.860;2023-02-13T13:36:50;3.33;;;3.22;;
45867;SDS011;31582;45.490;7.860;2023-02-13T13:42:05;3.25;;;3.15;;
45867;SDS011;31582;45.490;7.860;2023-02-13T13:44:47;3.05;;;2.95;;
45867;SDS011;31582;45.490;7.860;2023-02-13T13:50:11;3.20;;;3.10;;
45867;SDS011;31582;45.490;7.860;2023-02-13T13:58:48;3.60;;;3.40;;
45867;SDS011;31582;45.490;7.860;2023-02-13T14:01:29;3.63;;;3.38;;
45867;SDS011;31582;45.490;7.860;2023-02-13T14:07:12;3.60;;;3.40;;
45867;SDS011;31582;45.490;7.860;2023-02-13T14:11:54;3.03;;;2.92;;
45867;SDS011;31582;45.490;7.860;2023-02-13T14:16:58;3.00;;;2.90;;
45867;SDS011;31582;45.490;7.860;2023-02-13T14:19:33;2.72;;;2.63;;
45867;SDS011;31582;45.490;7.860;2023-02-13T14:24:51;2.83;;;2.73;;
45867;SDS011;31582;45.490;7.860;2023-02-13T14:27:23;3.35;;;3.20;;
45867;SDS011;31582;45.490;7.860;2023-02-13T14:29:57;3.15;;;3.05;;
45867;SDS011;31582;45.490;7.860;2023-02-13T14:32:32;3.38;;;3.17;;
45867;SDS011;31582;45.490;7.860;2023-02-13T14:37:49;3.30;;;3.10;;
45867;SDS011;31582;45.490;7.860;2023-02-13T14:42:45;3.03;;;2.83;;
45867;SDS011;31582;45.490;7.860;2023-02-13T14:45:17;2.80;;;2.70;;
45867;SDS011;31582;45.490;7.860;2023-02-13T14:47:51;2.92;;;2.72;;
45867;SDS011;31582;45.490;7.860;2023-02-13T14:50:33;2.63;;;2.53;;
45867;SDS011;31582;45.490;7.860;2023-02-13T14:53:23;2.88;;;2.70;;
45867;SDS011;31582;45.490;7.860;2023-02-13T14:56:07;2.70;;;2.60;;
45867;SDS011;31582;45.490;7.860;2023-02-13T14:58:45;2.70;;;2.50;;
45867;SDS011;31582;45.490;7.860;2023-02-13T15:01:31;2.67;;;2.58;;
45867;SDS011;31582;45.490;7.860;2023-02-13T15:04:10;3.70;;;3.50;;
45867;SDS011;31582;45.490;7.860;2023-02-13T15:06:43;2.80;;;2.70;;
45867;SDS011;31582;45.490;7.860;2023-02-13T15:15:44;2.58;;;2.38;;
45867;SDS011;31582;45.490;7.860;2023-02-13T15:18:07;2.30;;;2.20;;
45867;SDS011;31582;45.490;7.860;2023-02-13T15:20:38;2.33;;;2.22;;
45867;SDS011;31582;45.490;7.860;2023-02-13T15:23:14;2.05;;;1.95;;
45867;SDS011;31582;45.490;7.860;2023-02-13T15:25:47;2.40;;;2.30;;
45867;SDS011;31582;45.490;7.860;2023-02-13T15:28:23;2.42;;;2.33;;
45867;SDS011;31582;45.490;7.860;2023-02-13T15:30:55;2.60;;;2.50;;
45867;SDS011;31582;45.490;7.860;2023-02-13T15:33:23;2.67;;;2.58;;
45867;SDS011;31582;45.490;7.860;2023-02-13T15:36:01;2.50;;;2.40;;
45867;SDS011;31582;45.490;7.860;2023-02-13T15:38:34;2.30;;;2.20;;
45867;SDS011;31582;45.490;7.860;2023-02-13T15:41:05;2.80;;;2.70;;
45867;SDS011;31582;45.490;7.860;2023-02-13T15:43:46;2.80;;;2.70;;
45867;SDS011;31582;45.490;7.860;2023-02-13T15:46:28;2.53;;;2.42;;
45867;SDS011;31582;45.490;7.860;2023-02-13T15:49:00;2.38;;;2.28;;
45867;SDS011;31582;45.490;7.860;2023-02-13T15:51:31;2.70;;;2.60;;
45867;SDS011;31582;45.490;7.860;2023-02-13T15:56:47;2.75;;;2.55;;
45867;SDS011;31582;45.490;7.860;2023-02-13T15:59:17;2.42;;;2.33;;
45867;SDS011;31582;45.490;7.860;2023-02-13T16:01:44;2.40;;;2.30;;
45867;SDS011;31582;45.490;7.860;2023-02-13T16:04:13;2.10;;;2.00;;
45867;SDS011;31582;45.490;7.860;2023-02-13T16:06:43;2.58;;;2.38;;
45867;SDS011;31582;45.490;7.860;2023-02-13T16:12:26;2.58;;;2.47;;
45867;SDS011;31582;45.490;7.860;2023-02-13T16:14:55;2.60;;;2.50;;
45867;SDS011;31582;45.490;7.860;2023-02-13T16:20:04;3.00;;;2.63;;
45867;SDS011;31582;45.490;7.860;2023-02-13T16:28:03;3.00;;;2.80;;
45867;SDS011;31582;45.490;7.860;2023-02-13T16:30:50;2.60;;;2.50;;
45867;SDS011;31582;45.490;7.860;2023-02-13T16:33:30;3.10;;;2.97;;
45867;SDS011;31582;45.490;7.860;2023-02-13T16:38:36;3.25;;;3.05;;
45867;SDS011;31582;45.490;7.860;2023-02-13T17:04:41;2.60;;;2.50;;
45867;SDS011;31582;45.490;7.860;2023-02-13T17:07:13;2.63;;;2.47;;
45867;SDS011;31582;45.490;7.860;2023-02-13T17:09:42;2.80;;;2.60;;
45867;SDS011;31582;45.490;7.860;2023-02-13T17:12:13;2.20;;;2.10;;
45867;SDS011;31582;45.490;7.860;2023-02-13T17:14:43;2.80;;;2.60;;
45867;SDS011;31582;45.490;7.860;2023-02-13T17:17:15;2.30;;;2.20;;
45867;SDS011;31582;45.490;7.860;2023-02-13T17:19:44;2.73;;;2.53;;
45867;SDS011;31582;45.490;7.860;2023-02-13T17:25:06;2.57;;;2.43;;
45867;SDS011;31582;45.490;7.860;2023-02-13T17:27:37;2.90;;;2.77;;
45867;SDS011;31582;45.490;7.860;2023-02-13T17:30:04;2.85;;;2.75;;
45867;SDS011;31582;45.490;7.860;2023-02-13T17:32:32;2.90;;;2.80;;
45867;SDS011;31582;45.490;7.860;2023-02-13T17:34:58;2.70;;;2.60;;
45867;SDS011;31582;45.490;7.860;2023-02-13T17:37:26;2.83;;;2.70;;
45867;SDS011;31582;45.490;7.860;2023-02-13T17:39:53;2.60;;;2.50;;
45867;SDS011;31582;45.490;7.860;2023-02-13T17:42:24;2.60;;;2.50;;
45867;SDS011;31582;45.490;7.860;2023-02-13T17:44:56;2.67;;;2.47;;
45867;SDS011;31582;45.490;7.860;2023-02-13T17:47:24;2.70;;;2.60;;
45867;SDS011;31582;45.490;7.860;2023-02-13T17:49:51;2.92;;;2.83;;
45867;SDS011;31582;45.490;7.860;2023-02-13T17:52:30;3.08;;;2.95;;
45867;SDS011;31582;45.490;7.860;2023-02-13T17:54:57;5.57;;;5.10;;
45867;SDS011;31582;45.490;7.860;2023-02-13T17:57:24;5.55;;;5.05;;
45867;SDS011;31582;45.490;7.860;2023-02-13T17:59:51;4.30;;;4.05;;
45867;SDS011;31582;45.490;7.860;2023-02-13T18:02:19;3.90;;;3.60;;
45867;SDS011;31582;45.490;7.860;2023-02-13T18:04:48;3.40;;;3.20;;
45867;SDS011;31582;45.490;7.860;2023-02-13T18:07:17;3.65;;;3.45;;
45867;SDS011;31582;45.490;7.860;2023-02-13T18:09:45;3.25;;;3.10;;
45867;SDS011;31582;45.490;7.860;2023-02-13T18:12:13;3.33;;;3.13;;
45867;SDS011;31582;45.490;7.860;2023-02-13T18:14:48;3.80;;;3.60;;
45867;SDS011;31582;45.490;7.860;2023-02-13T18:17:16;3.63;;;3.40;;
45867;SDS011;31582;45.490;7.860;2023-02-13T18:19:44;3.58;;;3.38;;
45867;SDS011;31582;45.490;7.860;2023-02-13T18:22:12;3.60;;;3.40;;
45867;SDS011;31582;45.490;7.860;2023-02-13T18:24:40;3.80;;;3.50;;
45867;SDS011;31582;45.490;7.860;2023-02-13T18:27:08;3.65;;;3.45;;
45867;SDS011;31582;45.490;7.860;2023-02-13T18:29:37;3.83;;;3.53;;
45867;SDS011;31582;45.490;7.860;2023-02-13T18:32:04;4.30;;;4.10;;
45867;SDS011;31582;45.490;7.860;2023-02-13T18:34:35;3.92;;;3.72;;
45867;SDS011;31582;45.490;7.860;2023-02-13T18:37:03;4.20;;;4.00;;
45867;SDS011;31582;45.490;7.860;2023-02-13T18:39:32;4.30;;;4.10;;
45867;SDS011;31582;45.490;7.860;2023-02-13T18:42:00;4.30;;;4.10;;
45867;SDS011;31582;45.490;7.860;2023-02-13T18:44:27;3.95;;;3.65;;
45867;SDS011;31582;45.490;7.860;2023-02-13T18:46:54;3.92;;;3.72;;
45867;SDS011;31582;45.490;7.860;2023-02-13T18:49:21;3.70;;;3.50;;
45867;SDS011;31582;45.490;7.860;2023-02-13T18:51:49;3.45;;;3.30;;
45867;SDS011;31582;45.490;7.860;2023-02-13T18:54:16;3.45;;;3.25;;
45867;SDS011;31582;45.490;7.860;2023-02-13T18:56:44;3.30;;;3.10;;
45867;SDS011;31582;45.490;7.860;2023-02-13T18:59:11;3.30;;;3.20;;
45867;SDS011;31582;45.490;7.860;2023-02-13T19:01:39;3.55;;;3.35;;
45867;SDS011;31582;45.490;7.860;2023-02-13T19:04:06;3.30;;;3.10;;
45867;SDS011;31582;45.490;7.860;2023-02-13T19:06:33;3.38;;;3.17;;
45867;SDS011;31582;45.490;7.860;2023-02-13T19:09:00;3.53;;;3.33;;
45867;SDS011;31582;45.490;7.860;2023-02-13T19:11:27;4.00;;;3.80;;
45867;SDS011;31582;45.490;7.860;2023-02-13T19:13:54;3.72;;;3.53;;
45867;SDS011;31582;45.490;7.860;2023-02-13T19:16:23;4.15;;;3.85;;
45867;SDS011;31582;45.490;7.860;2023-02-13T19:18:54;3.80;;;3.60;;
45867;SDS011;31582;45.490;7.860;2023-02-13T19:21:23;3.92;;;3.72;;